Time,TemperatureF,DewpointF,PressureIn,WindDirection,WindDirectionDegrees,WindSpeedMPH,WindSpeedGustMPH,Humidity,HourlyPrecipIn,Conditions,Clouds,dailyrainin,SoftwareType,DateUTC
2013-02-06 00:00:00,17.2,6.8,29.91,WSW,247,0.0,0.0,63,0.00,,,0.00,WUHU21623XXSP,2013-02-06 05:00:00,
2013-02-06 00:05:00,17.2,7.3,29.91,WSW,247,0.0,0.0,65,0.00,,,0.00,WUHU21623XXSP,2013-02-06 05:05:00,
2013-02-06 00:10:00,17.2,7.3,29.91,WSW,247,0.0,0.0,65,0.00,,,0.00,WUHU21623XXSP,2013-02-06 05:10:00,
2013-02-06 00:15:00,17.4,7.5,29.91,WSW,247,0.0,0.0,65,0.00,,,0.00,WUHU21623XXSP,2013-02-06 05:15:00,
2013-02-06 00:20:00,17.6,7.7,29.91,WSW,247,0.0,0.0,65,0.00,,,0.00,WUHU21623XXSP,2013-02-06 05:20:00,
2013-02-06 00:25:00,17.8,8.4,29.91,WSW,247,0.0,0.0,66,0.00,,,0.00,WUHU21623XXSP,2013-02-06 05:25:00,
2013-02-06 00:30:00,17.8,7.9,29.90,WSW,247,0.0,0.0,65,0.00,,,0.00,WUHU21623XXSP,2013-02-06 05:30:00,
2013-02-06 00:35:00,17.8,8.4,29.90,WSW,247,0.0,0.0,66,0.00,,,0.00,WUHU21623XXSP,2013-02-06 05:35:00,
2013-02-06 00:40:00,17.8,8.4,29.90,WSW,247,0.0,0.0,66,0.00,,,0.00,WUHU21623XXSP,2013-02-06 05:40:00,
2013-02-06 00:45:00,17.8,8.9,29.90,WSW,247,0.0,0.0,68,0.00,,,0.00,WUHU21623XXSP,2013-02-06 05:45:00,
2013-02-06 00:50:00,17.8,8.9,29.90,WSW,247,0.0,0.0,68,0.00,,,0.00,WUHU21623XXSP,2013-02-06 05:50:00,
2013-02-06 00:55:00,18.0,9.1,29.91,WSW,247,0.0,0.0,68,0.00,,,0.00,WUHU21623XXSP,2013-02-06 05:55:00,
2013-02-06 01:00:00,18.0,9.1,29.91,WSW,247,0.0,0.0,68,0.00,,,0.00,WUHU21623XXSP,2013-02-06 06:00:00,
2013-02-06 01:05:00,18.0,9.1,29.91,WSW,247,0.0,0.0,68,0.00,,,0.00,WUHU21623XXSP,2013-02-06 06:05:00,
2013-02-06 01:10:00,18.1,9.7,29.90,WSW,247,0.0,0.0,69,0.00,,,0.00,WUHU21623XXSP,2013-02-06 06:10:00,
2013-02-06 01:15:00,18.1,9.7,29.90,WSW,247,0.0,0.0,69,0.00,,,0.00,WUHU21623XXSP,2013-02-06 06:15:00,
2013-02-06 01:20:00,18.1,9.7,29.90,WSW,247,0.0,0.0,69,0.00,,,0.00,WUHU21623XXSP,2013-02-06 06:20:00,
2013-02-06 01:25:00,18.3,9.9,29.90,WSW,247,0.0,0.0,69,0.00,,,0.00,WUHU21623XXSP,2013-02-06 06:25:00,
2013-02-06 01:30:00,18.3,9.9,29.90,WSW,247,0.0,0.0,69,0.00,,,0.00,WUHU21623XXSP,2013-02-06 06:30:00,
2013-02-06 01:35:00,18.3,9.9,29.90,WSW,247,0.0,0.0,69,0.00,,,0.00,WUHU21623XXSP,2013-02-06 06:35:00,
2013-02-06 01:40:00,18.3,9.9,29.90,WSW,247,0.0,0.0,69,0.00,,,0.00,WUHU21623XXSP,2013-02-06 06:40:00,
2013-02-06 01:45:00,18.3,9.9,29.90,WSW,247,0.0,0.0,69,0.00,,,0.00,WUHU21623XXSP,2013-02-06 06:45:00,
2013-02-06 01:50:00,18.5,10.1,29.90,WSW,247,0.0,0.0,69,0.00,,,0.00,WUHU21623XXSP,2013-02-06 06:50:00,
2013-02-06 01:55:00,18.3,9.9,29.91,WSW,247,0.0,0.0,69,0.00,,,0.00,WUHU21623XXSP,2013-02-06 06:55:00,
2013-02-06 02:00:00,18.3,9.9,29.91,WSW,247,0.0,0.0,69,0.00,,,0.00,WUHU21623XXSP,2013-02-06 07:00:00,
2013-02-06 02:05:00,18.5,10.1,29.90,WSW,247,0.0,0.0,69,0.00,,,0.00,WUHU21623XXSP,2013-02-06 07:05:00,
2013-02-06 02:10:00,18.3,9.9,29.90,WSW,247,0.0,0.0,69,0.00,,,0.00,WUHU21623XXSP,2013-02-06 07:10:00,
2013-02-06 02:15:00,18.3,9.9,29.90,WSW,247,0.0,0.0,69,0.00,,,0.00,WUHU21623XXSP,2013-02-06 07:15:00,
2013-02-06 02:20:00,18.3,9.9,29.90,WSW,247,0.0,0.0,69,0.00,,,0.00,WUHU21623XXSP,2013-02-06 07:20:00,
2013-02-06 02:25:00,18.3,9.9,29.90,WSW,247,0.0,0.0,69,0.00,,,0.00,WUHU21623XXSP,2013-02-06 07:25:00,
2013-02-06 02:30:00,18.3,10.4,29.91,WSW,247,0.0,0.0,71,0.00,,,0.00,WUHU21623XXSP,2013-02-06 07:30:00,
2013-02-06 02:35:00,18.5,10.6,29.91,WSW,247,0.0,0.0,71,0.00,,,0.00,WUHU21623XXSP,2013-02-06 07:35:00,
2013-02-06 02:40:00,18.3,10.4,29.91,WSW,247,0.0,0.0,71,0.00,,,0.00,WUHU21623XXSP,2013-02-06 07:40:00,
2013-02-06 02:45:00,18.5,10.6,29.91,WSW,247,0.0,0.0,71,0.00,,,0.00,WUHU21623XXSP,2013-02-06 07:45:00,
2013-02-06 02:50:00,18.5,10.6,29.91,WSW,247,0.0,0.0,71,0.00,,,0.00,WUHU21623XXSP,2013-02-06 07:50:00,
2013-02-06 02:55:00,18.5,10.6,29.90,WSW,247,0.0,0.0,71,0.00,,,0.00,WUHU21623XXSP,2013-02-06 07:55:00,
2013-02-06 03:00:00,18.5,11.0,29.90,WSW,247,0.0,0.0,72,0.00,,,0.00,WUHU21623XXSP,2013-02-06 08:00:00,
2013-02-06 03:05:00,18.7,11.2,29.90,WSW,247,0.0,0.0,72,0.00,,,0.00,WUHU21623XXSP,2013-02-06 08:05:00,
2013-02-06 03:10:00,18.5,11.0,29.90,WSW,247,0.0,0.0,72,0.00,,,0.00,WUHU21623XXSP,2013-02-06 08:10:00,
2013-02-06 03:15:00,18.5,11.5,29.90,WSW,247,0.0,0.0,74,0.00,,,0.00,WUHU21623XXSP,2013-02-06 08:15:00,
2013-02-06 03:20:00,18.5,11.0,29.90,WSW,247,0.0,0.0,72,0.00,,,0.00,WUHU21623XXSP,2013-02-06 08:20:00,
2013-02-06 03:25:00,18.5,11.5,29.90,WSW,247,0.0,0.0,74,0.00,,,0.00,WUHU21623XXSP,2013-02-06 08:25:00,
2013-02-06 03:30:00,18.5,11.5,29.90,WSW,247,0.0,0.0,74,0.00,,,0.00,WUHU21623XXSP,2013-02-06 08:30:00,
2013-02-06 03:35:00,18.5,11.5,29.90,WSW,247,0.0,0.0,74,0.00,,,0.00,WUHU21623XXSP,2013-02-06 08:35:00,
2013-02-06 03:40:00,18.5,11.9,29.90,WSW,247,0.0,0.0,75,0.00,,,0.00,WUHU21623XXSP,2013-02-06 08:40:00,
2013-02-06 03:45:00,18.5,11.9,29.90,WSW,247,0.0,0.0,75,0.00,,,0.00,WUHU21623XXSP,2013-02-06 08:45:00,
2013-02-06 03:50:00,18.3,11.7,29.90,WSW,247,0.0,0.0,75,0.00,,,0.00,WUHU21623XXSP,2013-02-06 08:50:00,
2013-02-06 03:55:00,18.5,11.9,29.90,WSW,247,0.0,0.0,75,0.00,,,0.00,WUHU21623XXSP,2013-02-06 08:55:00,
2013-02-06 04:00:00,18.3,11.7,29.89,WSW,247,0.0,0.0,75,0.00,,,0.00,WUHU21623XXSP,2013-02-06 09:00:00,
2013-02-06 04:05:00,18.1,11.5,29.90,WSW,247,0.0,0.0,75,0.00,,,0.00,WUHU21623XXSP,2013-02-06 09:05:00,
2013-02-06 04:10:00,18.1,12.0,29.89,WSW,247,0.0,0.0,77,0.00,,,0.00,WUHU21623XXSP,2013-02-06 09:10:00,
2013-02-06 04:15:00,18.1,12.0,29.89,WSW,247,0.0,0.0,77,0.00,,,0.00,WUHU21623XXSP,2013-02-06 09:15:00,
2013-02-06 04:20:00,18.1,12.0,29.90,WSW,247,0.0,0.0,77,0.00,,,0.00,WUHU21623XXSP,2013-02-06 09:20:00,
2013-02-06 04:25:00,18.3,12.2,29.90,WSW,247,0.0,0.0,77,0.00,,,0.00,WUHU21623XXSP,2013-02-06 09:25:00,
2013-02-06 04:30:00,18.1,12.0,29.90,WSW,247,0.0,0.0,77,0.00,,,0.00,WUHU21623XXSP,2013-02-06 09:30:00,
2013-02-06 04:35:00,18.1,12.0,29.90,WSW,247,0.0,0.0,77,0.00,,,0.00,WUHU21623XXSP,2013-02-06 09:35:00,
2013-02-06 04:40:00,18.1,12.0,29.90,WSW,247,0.0,0.0,77,0.00,,,0.00,WUHU21623XXSP,2013-02-06 09:40:00,
2013-02-06 04:45:00,18.1,12.0,29.90,WSW,247,0.0,0.0,77,0.00,,,0.00,WUHU21623XXSP,2013-02-06 09:45:00,
2013-02-06 04:50:00,18.3,12.6,29.91,WSW,247,0.0,0.0,78,0.00,,,0.00,WUHU21623XXSP,2013-02-06 09:50:00,
2013-02-06 04:55:00,18.3,12.6,29.91,WSW,247,0.0,0.0,78,0.00,,,0.00,WUHU21623XXSP,2013-02-06 09:55:00,
2013-02-06 05:00:00,18.3,12.6,29.91,WSW,247,0.0,0.0,78,0.00,,,0.00,WUHU21623XXSP,2013-02-06 10:00:00,
2013-02-06 05:05:00,18.3,12.6,29.91,WSW,247,0.0,0.0,78,0.00,,,0.00,WUHU21623XXSP,2013-02-06 10:05:00,
2013-02-06 05:10:00,18.3,12.6,29.91,WSW,247,0.0,0.0,78,0.00,,,0.00,WUHU21623XXSP,2013-02-06 10:10:00,
2013-02-06 05:15:00,18.1,12.4,29.91,WSW,247,0.0,0.0,78,0.00,,,0.00,WUHU21623XXSP,2013-02-06 10:15:00,
2013-02-06 05:20:00,18.1,12.4,29.91,WSW,247,0.0,0.0,78,0.00,,,0.00,WUHU21623XXSP,2013-02-06 10:20:00,
2013-02-06 05:25:00,18.0,12.3,29.91,WSW,247,0.0,0.0,78,0.00,,,0.00,WUHU21623XXSP,2013-02-06 10:25:00,
2013-02-06 05:30:00,18.0,12.3,29.91,WSW,247,0.0,0.0,78,0.00,,,0.00,WUHU21623XXSP,2013-02-06 10:30:00,
2013-02-06 05:35:00,18.0,12.7,29.91,WSW,247,0.0,0.0,80,0.00,,,0.00,WUHU21623XXSP,2013-02-06 10:35:00,
2013-02-06 05:40:00,18.0,12.7,29.91,WSW,247,0.0,0.0,80,0.00,,,0.00,WUHU21623XXSP,2013-02-06 10:40:00,
2013-02-06 05:45:00,18.0,12.7,29.91,WSW,247,0.0,0.0,80,0.00,,,0.00,WUHU21623XXSP,2013-02-06 10:45:00,
2013-02-06 05:50:00,18.1,12.8,29.91,WSW,247,0.0,0.0,80,0.00,,,0.00,WUHU21623XXSP,2013-02-06 10:50:00,
2013-02-06 05:55:00,18.0,12.7,29.91,WSW,247,0.0,0.0,80,0.00,,,0.00,WUHU21623XXSP,2013-02-06 10:55:00,
2013-02-06 06:00:00,18.1,12.8,29.91,WSW,247,0.0,0.0,80,0.00,,,0.00,WUHU21623XXSP,2013-02-06 11:00:00,
2013-02-06 06:05:00,18.0,12.7,29.91,WSW,247,0.0,0.0,80,0.00,,,0.00,WUHU21623XXSP,2013-02-06 11:05:00,
2013-02-06 06:10:00,18.1,13.2,29.91,WSW,247,0.0,0.0,81,0.00,,,0.00,WUHU21623XXSP,2013-02-06 11:10:00,
2013-02-06 06:15:00,18.0,13.1,29.91,WSW,247,0.0,0.0,81,0.00,,,0.00,WUHU21623XXSP,2013-02-06 11:15:00,
2013-02-06 06:20:00,18.0,13.1,29.91,WSW,247,0.0,0.0,81,0.00,,,0.00,WUHU21623XXSP,2013-02-06 11:20:00,
2013-02-06 06:25:00,17.8,13.0,29.92,WSW,247,0.0,0.0,81,0.00,,,0.00,WUHU21623XXSP,2013-02-06 11:25:00,
2013-02-06 06:30:00,17.8,13.0,29.92,WSW,247,0.0,0.0,81,0.00,,,0.00,WUHU21623XXSP,2013-02-06 11:30:00,
2013-02-06 06:35:00,17.6,12.8,29.92,WSW,247,0.0,0.0,81,0.00,,,0.00,WUHU21623XXSP,2013-02-06 11:35:00,
2013-02-06 06:40:00,17.2,12.4,29.92,WSW,247,0.0,0.0,81,0.00,,,0.00,WUHU21623XXSP,2013-02-06 11:40:00,
2013-02-06 06:45:00,17.4,12.6,29.93,WSW,247,0.0,0.0,81,0.00,,,0.00,WUHU21623XXSP,2013-02-06 11:45:00,
2013-02-06 06:50:00,17.4,12.6,29.93,WSW,247,0.0,0.0,81,0.00,,,0.00,WUHU21623XXSP,2013-02-06 11:50:00,
2013-02-06 06:55:00,17.2,12.4,29.92,WSW,247,0.0,0.0,81,0.00,,,0.00,WUHU21623XXSP,2013-02-06 11:55:00,
2013-02-06 07:00:00,17.2,12.4,29.92,WSW,247,0.0,0.0,81,0.00,,,0.00,WUHU21623XXSP,2013-02-06 12:00:00,
2013-02-06 07:05:00,17.2,12.8,29.93,WSW,247,0.0,0.0,83,0.00,,,0.00,WUHU21623XXSP,2013-02-06 12:05:00,
2013-02-06 07:10:00,17.2,12.8,29.93,WSW,247,0.0,0.0,83,0.00,,,0.00,WUHU21623XXSP,2013-02-06 12:10:00,
2013-02-06 07:15:00,17.2,12.8,29.93,WSW,247,0.0,0.0,83,0.00,,,0.00,WUHU21623XXSP,2013-02-06 12:15:00,
2013-02-06 07:20:00,17.4,13.0,29.93,WSW,247,0.0,0.0,83,0.00,,,0.00,WUHU21623XXSP,2013-02-06 12:20:00,
2013-02-06 07:25:00,17.4,13.0,29.93,WSW,247,0.0,0.0,83,0.00,,,0.00,WUHU21623XXSP,2013-02-06 12:25:00,
2013-02-06 07:30:00,17.4,13.4,29.93,WSW,247,0.0,0.0,84,0.00,,,0.00,WUHU21623XXSP,2013-02-06 12:30:00,
2013-02-06 07:35:00,17.6,13.6,29.94,WSW,247,0.0,0.0,84,0.00,,,0.00,WUHU21623XXSP,2013-02-06 12:35:00,
2013-02-06 07:40:00,17.8,13.8,29.93,WSW,247,0.0,0.0,84,0.00,,,0.00,WUHU21623XXSP,2013-02-06 12:40:00,
2013-02-06 07:45:00,17.8,13.8,29.94,WSW,247,0.0,0.0,84,0.00,,,0.00,WUHU21623XXSP,2013-02-06 12:45:00,
2013-02-06 07:52:00,17.8,13.8,29.93,WSW,247,0.0,0.0,84,0.00,,,0.00,WUHU21623XXSP,2013-02-06 12:52:00,
2013-02-06 07:57:00,18.0,14.4,29.93,WSW,247,0.0,0.0,86,0.00,,,0.00,WUHU21623XXSP,2013-02-06 12:57:00,
2013-02-06 08:02:00,18.1,14.5,29.93,WSW,247,0.0,0.0,86,0.00,,,0.00,WUHU21623XXSP,2013-02-06 13:02:00,
2013-02-06 08:07:00,18.1,14.5,29.93,WSW,247,0.0,0.0,86,0.00,,,0.00,WUHU21623XXSP,2013-02-06 13:07:00,
2013-02-06 08:12:00,18.1,14.5,29.93,WSW,247,0.0,0.0,86,0.00,,,0.00,WUHU21623XXSP,2013-02-06 13:12:00,
2013-02-06 08:17:00,18.3,14.6,29.94,WSW,247,0.0,0.0,86,0.00,,,0.00,WUHU21623XXSP,2013-02-06 13:17:00,
2013-02-06 08:22:00,18.5,14.8,29.93,WSW,247,0.0,0.0,86,0.00,,,0.00,WUHU21623XXSP,2013-02-06 13:22:00,
2013-02-06 08:27:00,18.5,14.8,29.93,WSW,247,0.0,0.0,86,0.00,,,0.00,WUHU21623XXSP,2013-02-06 13:27:00,
2013-02-06 08:32:00,18.9,15.2,29.94,WSW,247,0.0,0.0,86,0.00,,,0.00,WUHU21623XXSP,2013-02-06 13:32:00,
2013-02-06 08:37:00,19.0,15.7,29.93,WSW,247,0.0,0.0,87,0.00,,,0.00,WUHU21623XXSP,2013-02-06 13:37:00,
2013-02-06 08:42:00,19.0,15.7,29.93,WSW,247,0.0,0.0,87,0.00,,,0.00,WUHU21623XXSP,2013-02-06 13:42:00,
2013-02-06 08:47:00,19.2,15.9,29.93,WSW,247,0.0,0.0,87,0.00,,,0.00,WUHU21623XXSP,2013-02-06 13:47:00,
2013-02-06 08:52:00,19.6,16.3,29.93,WSW,247,0.0,0.0,87,0.00,,,0.00,WUHU21623XXSP,2013-02-06 13:52:00,
2013-02-06 08:57:00,19.9,16.6,29.93,WSW,247,0.0,0.0,87,0.00,,,0.00,WUHU21623XXSP,2013-02-06 13:57:00,
2013-02-06 09:02:00,20.3,17.0,29.93,WSW,247,0.0,0.0,87,0.00,,,0.00,WUHU21623XXSP,2013-02-06 14:02:00,
2013-02-06 09:07:00,20.7,17.4,29.93,WSW,247,0.0,0.0,87,0.00,,,0.00,WUHU21623XXSP,2013-02-06 14:07:00,
2013-02-06 09:12:00,20.7,17.4,29.93,WSW,247,0.0,0.0,87,0.00,,,0.00,WUHU21623XXSP,2013-02-06 14:12:00,
2013-02-06 09:17:00,21.2,18.3,29.93,WSW,247,0.0,0.0,89,0.00,,,0.00,WUHU21623XXSP,2013-02-06 14:17:00,
2013-02-06 09:22:00,21.4,18.5,29.93,North,0,1.1,3.9,89,0.00,,,0.00,WUHU21623XXSP,2013-02-06 14:22:00,
2013-02-06 09:27:00,22.1,19.2,29.93,North,0,0.5,3.9,89,0.00,,,0.00,WUHU21623XXSP,2013-02-06 14:27:00,
2013-02-06 09:32:00,22.6,19.7,29.92,North,0,0.0,4.3,89,0.00,,,0.00,WUHU21623XXSP,2013-02-06 14:32:00,
2013-02-06 09:37:00,23.2,20.3,29.92,NNE,22,2.7,5.1,89,0.00,,,0.00,WUHU21623XXSP,2013-02-06 14:37:00,
2013-02-06 09:42:00,23.5,20.6,29.92,NNW,337,4.3,5.1,89,0.00,,,0.00,WUHU21623XXSP,2013-02-06 14:42:00,
2013-02-06 09:47:00,23.9,21.0,29.92,NNE,22,2.9,5.0,89,0.00,,,0.00,WUHU21623XXSP,2013-02-06 14:47:00,
2013-02-06 09:52:00,24.3,21.3,29.92,NNE,22,0.6,4.3,89,0.00,,,0.00,WUHU21623XXSP,2013-02-06 14:52:00,
2013-02-06 09:57:00,24.6,21.2,29.92,NNE,22,0.0,3.5,87,0.00,,,0.00,WUHU21623XXSP,2013-02-06 14:57:00,
2013-02-06 10:02:00,25.0,21.6,29.92,NNE,22,1.5,5.6,87,0.00,,,0.00,WUHU21623XXSP,2013-02-06 15:02:00,
2013-02-06 10:07:00,25.5,22.1,29.91,ESE,112,2.7,5.6,87,0.00,,,0.00,WUHU21623XXSP,2013-02-06 15:07:00,
2013-02-06 10:12:00,25.9,22.5,29.92,ESE,112,0.0,4.9,87,0.00,,,0.00,WUHU21623XXSP,2013-02-06 15:12:00,
2013-02-06 10:17:00,26.1,22.7,29.92,NW,315,4.0,6.0,87,0.00,,,0.00,WUHU21623XXSP,2013-02-06 15:17:00,
2013-02-06 10:22:00,26.2,22.8,29.92,West,270,3.7,6.0,87,0.00,,,0.00,WUHU21623XXSP,2013-02-06 15:22:00,
2013-02-06 10:27:00,26.8,23.0,29.92,West,270,1.4,6.6,86,0.00,,,0.00,WUHU21623XXSP,2013-02-06 15:27:00,
2013-02-06 10:32:00,27.3,23.5,29.92,WSW,247,1.2,6.6,86,0.00,,,0.00,WUHU21623XXSP,2013-02-06 15:32:00,
2013-02-06 10:37:00,27.5,23.7,29.91,WSW,247,1.7,8.6,86,0.00,,,0.00,WUHU21623XXSP,2013-02-06 15:37:00,
2013-02-06 10:42:00,28.0,24.2,29.92,NW,315,3.0,8.6,86,0.00,,,0.00,WUHU21623XXSP,2013-02-06 15:42:00,
2013-02-06 10:47:00,28.6,24.8,29.91,SW,225,0.4,8.3,86,0.00,,,0.00,WUHU21623XXSP,2013-02-06 15:47:00,
2013-02-06 10:52:00,29.1,24.8,29.92,WSW,247,2.6,8.7,84,0.00,,,0.00,WUHU21623XXSP,2013-02-06 15:52:00,
2013-02-06 10:57:00,29.5,25.2,29.92,West,270,3.8,8.7,84,0.00,,,0.00,WUHU21623XXSP,2013-02-06 15:57:00,
2013-02-06 11:02:00,30.0,25.3,29.91,West,270,3.0,9.1,83,0.00,,,0.00,WUHU21623XXSP,2013-02-06 16:02:00,
2013-02-06 11:07:00,30.9,26.2,29.92,SW,225,6.3,11.0,83,0.00,,,0.00,WUHU21623XXSP,2013-02-06 16:07:00,
2013-02-06 11:12:00,31.5,26.3,29.92,SSW,202,1.4,11.0,81,0.00,,,0.00,WUHU21623XXSP,2013-02-06 16:12:00,
2013-02-06 11:17:00,32.2,26.6,29.91,SSW,202,5.5,8.4,80,0.00,,,0.00,WUHU21623XXSP,2013-02-06 16:17:00,
2013-02-06 11:22:00,32.5,26.4,29.91,WSW,247,7.1,7.8,78,0.00,,,0.00,WUHU21623XXSP,2013-02-06 16:22:00,
2013-02-06 11:27:00,32.9,26.4,29.91,East,90,4.9,17.6,77,0.00,,,0.00,WUHU21623XXSP,2013-02-06 16:27:00,
2013-02-06 11:32:00,32.9,25.4,29.91,WSW,247,5.0,17.6,74,0.00,,,0.00,WUHU21623XXSP,2013-02-06 16:32:00,
2013-02-06 11:37:00,33.4,25.4,29.91,NW,315,3.7,11.7,72,0.00,,,0.00,WUHU21623XXSP,2013-02-06 16:37:00,
2013-02-06 11:42:00,33.8,25.3,29.90,WSW,247,6.2,15.4,71,0.00,,,0.00,WUHU21623XXSP,2013-02-06 16:42:00,
2013-02-06 11:47:00,34.0,25.0,29.90,WNW,292,7.6,15.4,69,0.00,,,0.00,WUHU21623XXSP,2013-02-06 16:47:00,
2013-02-06 11:52:00,34.0,24.4,29.90,South,180,4.0,9.5,68,0.00,,,0.00,WUHU21623XXSP,2013-02-06 16:52:00,
2013-02-06 11:57:00,33.4,23.3,29.91,SW,225,5.8,12.1,66,0.00,,,0.00,WUHU21623XXSP,2013-02-06 16:57:00,
2013-02-06 12:02:00,33.3,22.7,29.91,West,270,5.0,12.1,65,0.00,,,0.00,WUHU21623XXSP,2013-02-06 17:02:00,
2013-02-06 12:07:00,33.1,22.5,29.90,West,270,4.5,10.2,65,0.00,,,0.00,WUHU21623XXSP,2013-02-06 17:07:00,
2013-02-06 12:12:00,32.9,21.7,29.90,NW,315,8.2,16.2,63,0.00,,,0.00,WUHU21623XXSP,2013-02-06 17:12:00,
2013-02-06 12:17:00,32.7,21.0,29.91,WNW,292,11.4,17.7,62,0.00,,,0.00,WUHU21623XXSP,2013-02-06 17:17:00,
2013-02-06 12:22:00,32.5,20.2,29.91,WSW,247,11.1,17.7,60,0.00,,,0.00,WUHU21623XXSP,2013-02-06 17:22:00,
2013-02-06 12:27:00,32.5,20.2,29.91,West,270,11.6,15.0,60,0.00,,,0.00,WUHU21623XXSP,2013-02-06 17:27:00,
2013-02-06 12:32:00,32.5,20.2,29.91,West,270,4.6,14.5,60,0.00,,,0.00,WUHU21623XXSP,2013-02-06 17:32:00,
2013-02-06 12:37:00,32.5,19.6,29.91,West,270,5.1,18.6,59,0.00,,,0.00,WUHU21623XXSP,2013-02-06 17:37:00,
2013-02-06 12:42:00,32.5,20.2,29.91,WSW,247,5.9,18.6,60,0.00,,,0.00,WUHU21623XXSP,2013-02-06 17:42:00,
2013-02-06 12:47:00,32.7,20.4,29.91,WSW,247,4.4,15.7,60,0.00,,,0.00,WUHU21623XXSP,2013-02-06 17:47:00,
2013-02-06 12:52:00,33.1,20.8,29.91,WSW,247,6.5,15.7,60,0.00,,,0.00,WUHU21623XXSP,2013-02-06 17:52:00,
2013-02-06 12:57:00,33.1,20.2,29.91,SSW,202,6.9,13.5,59,0.00,,,0.00,WUHU21623XXSP,2013-02-06 17:57:00,
2013-02-06 13:02:00,32.9,18.1,29.91,WNW,292,7.3,16.5,54,0.00,,,0.00,WUHU21623XXSP,2013-02-06 18:02:00,
2013-02-06 13:07:00,32.9,18.1,29.92,West,270,7.3,16.5,54,0.00,,,0.00,WUHU21623XXSP,2013-02-06 18:07:00,
2013-02-06 13:12:00,32.7,16.5,29.92,West,270,5.8,15.7,51,0.00,,,0.00,WUHU21623XXSP,2013-02-06 18:12:00,
2013-02-06 13:17:00,32.7,15.8,29.92,West,270,5.1,12.0,50,0.00,,,0.00,WUHU21623XXSP,2013-02-06 18:17:00,
2013-02-06 13:22:00,32.9,16.0,29.91,West,270,6.2,12.1,50,0.00,,,0.00,WUHU21623XXSP,2013-02-06 18:22:00,
2013-02-06 13:27:00,33.3,15.6,29.91,WSW,247,7.8,14.7,48,0.00,,,0.00,WUHU21623XXSP,2013-02-06 18:27:00,
2013-02-06 13:33:00,33.3,9.0,29.92,WNW,292,6.7,14.7,36,0.00,,,0.00,WUHU21623XXSP,2013-02-06 18:33:00,
2013-02-06 13:38:00,34.2,8.8,29.92,SW,225,5.8,14.6,35,0.00,,,0.00,WUHU21623XXSP,2013-02-06 18:38:00,
2013-02-06 13:43:00,34.3,5.8,29.91,SW,225,10.4,20.3,30,0.00,,,0.00,WUHU21623XXSP,2013-02-06 18:43:00,
2013-02-06 13:48:00,34.5,6.0,29.92,WSW,247,9.4,22.9,30,0.00,,,0.00,WUHU21623XXSP,2013-02-06 18:48:00,
2013-02-06 13:53:00,34.7,6.2,29.92,WNW,292,7.0,22.9,30,0.00,,,0.00,WUHU21623XXSP,2013-02-06 18:53:00,
2013-02-06 13:58:00,34.9,6.4,29.93,WNW,292,7.2,13.1,30,0.00,,,0.00,WUHU21623XXSP,2013-02-06 18:58:00,
2013-02-06 14:03:00,34.5,6.0,29.93,WSW,247,6.5,23.6,30,0.00,,,0.00,WUHU21623XXSP,2013-02-06 19:03:00,
2013-02-06 14:08:00,34.2,5.7,29.92,West,270,9.4,26.9,30,0.00,,,0.00,WUHU21623XXSP,2013-02-06 19:08:00,
2013-02-06 14:13:00,34.2,5.7,29.93,West,270,11.0,26.9,30,0.00,,,0.00,WUHU21623XXSP,2013-02-06 19:13:00,
2013-02-06 14:18:00,34.5,6.0,29.93,WNW,292,8.9,25.1,30,0.00,,,0.00,WUHU21623XXSP,2013-02-06 19:18:00,
2013-02-06 14:23:00,34.5,6.0,29.93,West,270,5.8,25.1,30,0.00,,,0.00,WUHU21623XXSP,2013-02-06 19:23:00,
2013-02-06 14:28:00,34.7,6.2,29.93,West,270,7.9,22.0,30,0.00,,,0.00,WUHU21623XXSP,2013-02-06 19:28:00,
2013-02-06 14:33:00,34.7,6.2,29.93,West,270,8.1,26.9,30,0.00,,,0.00,WUHU21623XXSP,2013-02-06 19:33:00,
2013-02-06 14:38:00,35.1,6.5,29.93,WSW,247,5.1,26.9,30,0.00,,,0.00,WUHU21623XXSP,2013-02-06 19:38:00,
2013-02-06 14:43:00,35.1,6.5,29.93,WSW,247,8.0,22.1,30,0.00,,,0.00,WUHU21623XXSP,2013-02-06 19:43:00,
2013-02-06 14:48:00,35.2,6.6,29.94,South,180,13.6,22.1,30,0.00,,,0.00,WUHU21623XXSP,2013-02-06 19:48:00,
2013-02-06 14:53:00,35.2,6.6,29.94,SW,225,8.6,20.1,30,0.00,,,0.00,WUHU21623XXSP,2013-02-06 19:53:00,
2013-02-06 14:58:00,35.2,6.6,29.94,West,270,10.3,20.1,30,0.00,,,0.00,WUHU21623XXSP,2013-02-06 19:58:00,
2013-02-06 15:03:00,35.4,6.8,29.95,SW,225,4.4,18.6,30,0.00,,,0.00,WUHU21623XXSP,2013-02-06 20:03:00,
2013-02-06 15:08:00,35.8,7.1,29.95,WSW,247,11.2,18.6,30,0.00,,,0.00,WUHU21623XXSP,2013-02-06 20:08:00,
2013-02-06 15:13:00,35.8,7.1,29.95,West,270,9.5,14.6,30,0.00,,,0.00,WUHU21623XXSP,2013-02-06 20:13:00,
2013-02-06 15:18:00,36.0,7.3,29.95,West,270,7.0,17.5,30,0.00,,,0.00,WUHU21623XXSP,2013-02-06 20:18:00,
2013-02-06 15:23:00,36.0,7.3,29.96,SW,225,7.0,17.5,30,0.00,,,0.00,WUHU21623XXSP,2013-02-06 20:23:00,
2013-02-06 15:28:00,35.8,7.1,29.96,SSW,202,9.4,19.1,30,0.00,,,0.00,WUHU21623XXSP,2013-02-06 20:28:00,
2013-02-06 15:33:00,35.1,6.5,29.96,WNW,292,5.6,19.1,30,0.00,,,0.00,WUHU21623XXSP,2013-02-06 20:33:00,
2013-02-06 15:38:00,35.2,6.6,29.96,WSW,247,6.5,15.0,30,0.00,,,0.00,WUHU21623XXSP,2013-02-06 20:38:00,
2013-02-06 15:43:00,35.8,7.1,29.97,SW,225,5.5,11.3,30,0.00,,,0.00,WUHU21623XXSP,2013-02-06 20:43:00,
2013-02-06 15:48:00,35.8,7.1,29.97,SW,225,7.4,13.8,30,0.00,,,0.00,WUHU21623XXSP,2013-02-06 20:48:00,
2013-02-06 15:53:00,36.0,7.3,29.98,SSW,202,11.0,13.8,30,0.00,,,0.00,WUHU21623XXSP,2013-02-06 20:53:00,
2013-02-06 16:01:00,35.6,7.0,29.98,SW,225,6.5,13.2,30,0.00,,,0.00,WUHU21623XXSP,2013-02-06 21:01:00,
2013-02-06 16:06:00,35.2,6.6,29.98,SW,225,5.8,12.5,30,0.00,,,0.00,WUHU21623XXSP,2013-02-06 21:06:00,
2013-02-06 16:11:00,34.7,6.2,29.99,SW,225,5.2,12.5,30,0.00,,,0.00,WUHU21623XXSP,2013-02-06 21:11:00,
2013-02-06 16:16:00,34.3,5.8,29.99,West,270,8.9,12.2,30,0.00,,,0.00,WUHU21623XXSP,2013-02-06 21:16:00,
2013-02-06 16:21:00,34.0,5.6,29.99,WSW,247,2.7,10.8,30,0.00,,,0.00,WUHU21623XXSP,2013-02-06 21:21:00,
2013-02-06 16:26:00,33.4,5.1,30.00,WSW,247,6.7,12.2,30,0.00,,,0.00,WUHU21623XXSP,2013-02-06 21:26:00,
2013-02-06 16:31:00,32.9,4.6,30.00,West,270,9.1,12.2,30,0.00,,,0.00,WUHU21623XXSP,2013-02-06 21:31:00,
2013-02-06 16:36:00,32.4,4.2,30.00,WNW,292,2.4,11.1,30,0.00,,,0.00,WUHU21623XXSP,2013-02-06 21:36:00,
2013-02-06 16:41:00,31.8,3.7,30.01,West,270,5.1,10.3,30,0.00,,,0.00,WUHU21623XXSP,2013-02-06 21:41:00,
2013-02-06 16:46:00,31.5,3.4,30.02,SW,225,3.3,8.4,30,0.00,,,0.00,WUHU21623XXSP,2013-02-06 21:46:00,
2013-02-06 16:51:00,30.7,2.7,30.02,West,270,3.5,8.4,30,0.00,,,0.00,WUHU21623XXSP,2013-02-06 21:51:00,
2013-02-06 16:56:00,30.4,2.4,30.03,WNW,292,3.8,8.3,30,0.00,,,0.00,WUHU21623XXSP,2013-02-06 21:56:00,
2013-02-06 17:01:00,29.5,1.6,30.02,SSW,202,5.1,7.7,30,0.00,,,0.00,WUHU21623XXSP,2013-02-06 22:01:00,
2013-02-06 17:06:00,28.9,1.1,30.03,WSW,247,2.1,8.5,30,0.00,,,0.00,WUHU21623XXSP,2013-02-06 22:06:00,
2013-02-06 17:11:00,28.4,10.4,30.03,WSW,247,0.3,9.5,47,0.00,,,0.00,WUHU21623XXSP,2013-02-06 22:11:00,
2013-02-06 17:16:00,27.9,11.4,30.04,WSW,247,5.4,9.5,50,0.00,,,0.00,WUHU21623XXSP,2013-02-06 22:16:00,
2013-02-06 17:21:00,27.5,12.4,30.04,SW,225,2.5,9.2,53,0.00,,,0.00,WUHU21623XXSP,2013-02-06 22:21:00,
2013-02-06 17:26:00,27.1,12.6,30.04,West,270,2.5,8.3,54,0.00,,,0.00,WUHU21623XXSP,2013-02-06 22:26:00,
2013-02-06 17:31:00,26.8,12.4,30.05,West,270,5.5,6.2,54,0.00,,,0.00,WUHU21623XXSP,2013-02-06 22:31:00,
2013-02-06 17:36:00,26.4,12.6,30.06,WSW,247,1.7,8.5,56,0.00,,,0.00,WUHU21623XXSP,2013-02-06 22:36:00,
2013-02-06 17:41:00,26.2,13.0,30.05,West,270,3.2,8.5,57,0.00,,,0.00,WUHU21623XXSP,2013-02-06 22:41:00,
2013-02-06 17:46:00,25.9,12.8,30.06,West,270,2.4,11.8,57,0.00,,,0.00,WUHU21623XXSP,2013-02-06 22:46:00,
2013-02-06 17:51:00,25.7,13.2,30.06,West,270,2.6,11.8,59,0.00,,,0.00,WUHU21623XXSP,2013-02-06 22:51:00,
2013-02-06 17:56:00,25.5,13.0,30.07,WNW,292,3.0,7.8,59,0.00,,,0.00,WUHU21623XXSP,2013-02-06 22:56:00,
2013-02-06 18:01:00,25.2,13.3,30.07,West,270,0.0,7.0,60,0.00,,,0.00,WUHU21623XXSP,2013-02-06 23:01:00,
2013-02-06 18:06:00,25.0,12.5,30.07,WSW,247,3.5,7.1,59,0.00,,,0.00,WUHU21623XXSP,2013-02-06 23:06:00,
2013-02-06 18:11:00,24.6,12.7,30.07,WSW,247,3.7,7.1,60,0.00,,,0.00,WUHU21623XXSP,2013-02-06 23:11:00,
2013-02-06 18:16:00,24.4,12.0,30.08,WSW,247,3.4,6.7,59,0.00,,,0.00,WUHU21623XXSP,2013-02-06 23:16:00,
2013-02-06 18:21:00,24.3,11.9,30.09,SSW,202,2.7,8.5,59,0.00,,,0.00,WUHU21623XXSP,2013-02-06 23:21:00,
2013-02-06 18:28:00,23.9,10.9,30.09,WNW,292,2.6,10.0,57,0.00,,,0.00,WUHU21623XXSP,2013-02-06 23:28:00,
2013-02-06 18:33:00,23.7,10.7,30.09,WSW,247,2.5,10.6,57,0.00,,,0.00,WUHU21623XXSP,2013-02-06 23:33:00,
2013-02-06 18:38:00,23.5,10.5,30.10,WNW,292,6.1,11.0,57,0.00,,,0.00,WUHU21623XXSP,2013-02-06 23:38:00,
2013-02-06 18:43:00,23.4,9.8,30.11,SW,225,5.9,11.9,56,0.00,,,0.00,WUHU21623XXSP,2013-02-06 23:43:00,
2013-02-06 18:48:00,23.2,9.0,30.11,South,180,4.8,11.9,54,0.00,,,0.00,WUHU21623XXSP,2013-02-06 23:48:00,
2013-02-06 18:53:00,22.6,8.4,30.11,West,270,5.3,10.9,54,0.00,,,0.00,WUHU21623XXSP,2013-02-06 23:53:00,
2013-02-06 18:58:00,22.6,6.4,30.12,WSW,247,7.1,12.5,50,0.00,,,0.00,WUHU21623XXSP,2013-02-06 23:58:00,
2013-02-06 19:03:00,22.5,7.0,30.12,SW,225,7.1,12.5,51,0.00,,,0.00,WUHU21623XXSP,2013-02-07 00:03:00,
2013-02-06 19:08:00,22.1,5.3,30.12,WNW,292,7.9,10.5,48,0.00,,,0.00,WUHU21623XXSP,2013-02-07 00:08:00,
2013-02-06 19:13:00,22.1,4.6,30.13,West,270,2.9,10.5,47,0.00,,,0.00,WUHU21623XXSP,2013-02-07 00:13:00,
2013-02-06 19:18:00,21.7,4.9,30.13,WSW,247,2.5,9.4,48,0.00,,,0.00,WUHU21623XXSP,2013-02-07 00:18:00,
2013-02-06 19:23:00,21.6,4.8,30.14,SW,225,4.6,9.4,48,0.00,,,0.00,WUHU21623XXSP,2013-02-07 00:23:00,
2013-02-06 19:28:00,21.6,4.1,30.14,WNW,292,3.4,11.0,47,0.00,,,0.00,WUHU21623XXSP,2013-02-07 00:28:00,
2013-02-06 19:33:00,21.4,3.2,30.14,SSW,202,5.4,11.0,45,0.00,,,0.00,WUHU21623XXSP,2013-02-07 00:33:00,
2013-02-06 19:38:00,21.0,-0.3,30.14,WSW,247,4.7,9.2,39,0.00,,,0.00,WUHU21623XXSP,2013-02-07 00:38:00,
2013-02-06 19:43:00,20.8,-1.3,30.14,WNW,292,1.4,9.6,38,0.00,,,0.00,WUHU21623XXSP,2013-02-07 00:43:00,
2013-02-06 19:48:00,20.7,-4.1,30.15,WSW,247,4.2,9.6,33,0.00,,,0.00,WUHU21623XXSP,2013-02-07 00:48:00,
2013-02-06 19:53:00,20.3,-5.4,30.15,West,270,3.7,7.2,32,0.00,,,0.00,WUHU21623XXSP,2013-02-07 00:53:00,
2013-02-06 19:58:00,20.1,-6.6,30.15,West,270,7.3,10.9,30,0.00,,,0.00,WUHU21623XXSP,2013-02-07 00:58:00,
2013-02-06 20:03:00,20.1,-6.6,30.16,West,270,3.4,13.9,30,0.00,,,0.00,WUHU21623XXSP,2013-02-07 01:03:00,
2013-02-06 20:08:00,19.9,-6.8,30.16,SW,225,6.4,13.9,30,0.00,,,0.00,WUHU21623XXSP,2013-02-07 01:08:00,
2013-02-06 20:13:00,19.8,-6.9,30.17,SW,225,4.5,13.1,30,0.00,,,0.00,WUHU21623XXSP,2013-02-07 01:13:00,
2013-02-06 20:18:00,19.6,-7.0,30.16,West,270,2.7,13.1,30,0.00,,,0.00,WUHU21623XXSP,2013-02-07 01:18:00,
2013-02-06 20:23:00,19.6,-7.0,30.17,WNW,292,1.6,8.5,30,0.00,,,0.00,WUHU21623XXSP,2013-02-07 01:23:00,
2013-02-06 20:28:00,19.2,-7.4,30.17,WSW,247,6.9,8.5,30,0.00,,,0.00,WUHU21623XXSP,2013-02-07 01:28:00,
2013-02-06 20:33:00,19.0,-7.6,30.18,SSW,202,4.2,9.4,30,0.00,,,0.00,WUHU21623XXSP,2013-02-07 01:33:00,
2013-02-06 20:38:00,18.9,-7.6,30.18,WSW,247,5.4,11.5,30,0.00,,,0.00,WUHU21623XXSP,2013-02-07 01:38:00,
2013-02-06 20:43:00,18.7,-7.8,30.19,SW,225,6.9,11.5,30,0.00,,,0.00,WUHU21623XXSP,2013-02-07 01:43:00,
2013-02-06 20:48:00,18.5,-8.0,30.20,WSW,247,1.8,11.8,30,0.00,,,0.00,WUHU21623XXSP,2013-02-07 01:48:00,
2013-02-06 20:53:00,18.3,-8.2,30.19,West,270,3.8,11.8,30,0.00,,,0.00,WUHU21623XXSP,2013-02-07 01:53:00,
2013-02-06 20:58:00,18.1,-8.3,30.19,West,270,2.8,10.4,30,0.00,,,0.00,WUHU21623XXSP,2013-02-07 01:58:00,
2013-02-06 21:03:00,18.0,-8.4,30.20,West,270,7.5,13.4,30,0.00,,,0.00,WUHU21623XXSP,2013-02-07 02:03:00,
2013-02-06 21:08:00,17.8,-8.6,30.20,West,270,4.4,13.4,30,0.00,,,0.00,WUHU21623XXSP,2013-02-07 02:08:00,
2013-02-06 21:13:00,17.8,-8.6,30.20,WSW,247,6.8,13.4,30,0.00,,,0.00,WUHU21623XXSP,2013-02-07 02:13:00,
2013-02-06 21:18:00,17.6,-8.8,30.20,West,270,2.6,9.6,30,0.00,,,0.00,WUHU21623XXSP,2013-02-07 02:18:00,
2013-02-06 21:23:00,17.2,-9.1,30.20,WSW,247,2.1,9.6,30,0.00,,,0.00,WUHU21623XXSP,2013-02-07 02:23:00,
2013-02-06 21:28:00,17.2,-9.1,30.20,WSW,247,7.4,11.3,30,0.00,,,0.00,WUHU21623XXSP,2013-02-07 02:28:00,
2013-02-06 21:33:00,17.1,-9.2,30.21,WSW,247,6.0,11.3,30,0.00,,,0.00,WUHU21623XXSP,2013-02-07 02:33:00,
2013-02-06 21:38:00,17.1,-9.2,30.21,WSW,247,3.1,11.1,30,0.00,,,0.00,WUHU21623XXSP,2013-02-07 02:38:00,
2013-02-06 21:43:00,16.9,-9.4,30.21,SW,225,6.2,11.1,30,0.00,,,0.00,WUHU21623XXSP,2013-02-07 02:43:00,
2013-02-06 21:48:00,16.7,-9.6,30.22,SSW,202,9.2,11.2,30,0.00,,,0.00,WUHU21623XXSP,2013-02-07 02:48:00,
2013-02-06 21:53:00,16.7,-9.6,30.22,South,180,4.9,11.2,30,0.00,,,0.00,WUHU21623XXSP,2013-02-07 02:53:00,
2013-02-06 21:58:00,16.5,-9.7,30.22,West,270,6.0,13.1,30,0.00,,,0.00,WUHU21623XXSP,2013-02-07 02:58:00,
2013-02-06 22:03:00,16.5,-9.7,30.22,SW,225,6.4,13.1,30,0.00,,,0.00,WUHU21623XXSP,2013-02-07 03:03:00,
2013-02-06 22:08:00,16.2,-10.0,30.23,WSW,247,4.0,15.0,30,0.00,,,0.00,WUHU21623XXSP,2013-02-07 03:08:00,
2013-02-06 22:13:00,16.2,-10.0,30.23,West,270,6.3,15.7,30,0.00,,,0.00,WUHU21623XXSP,2013-02-07 03:13:00,
2013-02-06 22:18:00,16.0,-10.2,30.23,West,270,7.8,15.7,30,0.00,,,0.00,WUHU21623XXSP,2013-02-07 03:18:00,
2013-02-06 22:23:00,16.0,-10.2,30.23,WSW,247,7.4,12.9,30,0.00,,,0.00,WUHU21623XXSP,2013-02-07 03:23:00,
2013-02-06 22:28:00,16.0,-10.2,30.23,WSW,247,4.5,12.9,30,0.00,,,0.00,WUHU21623XXSP,2013-02-07 03:28:00,
2013-02-06 22:33:00,15.8,-10.4,30.23,West,270,4.3,12.8,30,0.00,,,0.00,WUHU21623XXSP,2013-02-07 03:33:00,
2013-02-06 22:38:00,15.6,-10.5,30.23,WSW,247,3.4,12.8,30,0.00,,,0.00,WUHU21623XXSP,2013-02-07 03:38:00,
2013-02-06 22:49:00,15.3,-10.8,30.24,West,270,7.3,14.4,30,0.00,,,0.00,WUHU21623XXSP,2013-02-07 03:49:00,
2013-02-06 22:54:00,15.3,-10.8,30.25,SW,225,10.6,14.4,30,0.00,,,0.00,WUHU21623XXSP,2013-02-07 03:54:00,
2013-02-06 22:59:00,15.1,-11.0,30.25,West,270,6.0,15.3,30,0.00,,,0.00,WUHU21623XXSP,2013-02-07 03:59:00,
2013-02-06 23:04:00,15.1,-11.0,30.25,WSW,247,3.7,15.3,30,0.00,,,0.00,WUHU21623XXSP,2013-02-07 04:04:00,
2013-02-06 23:09:00,14.9,-11.1,30.25,West,270,5.6,11.8,30,0.00,,,0.00,WUHU21623XXSP,2013-02-07 04:09:00,
2013-02-06 23:14:00,14.7,-11.3,30.25,West,270,5.8,14.9,30,0.00,,,0.00,WUHU21623XXSP,2013-02-07 04:14:00,
2013-02-06 23:19:00,14.9,-11.1,30.25,WSW,247,9.1,14.9,30,0.00,,,0.00,WUHU21623XXSP,2013-02-07 04:19:00,
2013-02-06 23:24:00,14.7,-11.3,30.25,West,270,5.7,14.0,30,0.00,,,0.00,WUHU21623XXSP,2013-02-07 04:24:00,
2013-02-06 23:29:00,14.7,-11.3,30.25,WSW,247,4.9,11.1,30,0.00,,,0.00,WUHU21623XXSP,2013-02-07 04:29:00,
2013-02-06 23:34:00,14.7,-11.3,30.25,SW,225,4.0,10.7,30,0.00,,,0.00,WUHU21623XXSP,2013-02-07 04:34:00,
2013-02-06 23:39:00,14.5,-11.5,30.26,West,270,4.1,10.7,30,0.00,,,0.00,WUHU21623XXSP,2013-02-07 04:39:00,
2013-02-06 23:44:00,14.4,-11.6,30.26,West,270,6.6,9.1,30,0.00,,,0.00,WUHU21623XXSP,2013-02-07 04:44:00,
2013-02-06 23:49:00,14.4,-11.6,30.25,SW,225,5.7,10.7,30,0.00,,,0.00,WUHU21623XXSP,2013-02-07 04:49:00,
2013-02-06 23:54:00,14.4,-11.6,30.25,SW,225,2.2,11.8,30,0.00,,,0.00,WUHU21623XXSP,2013-02-07 04:54:00,